Time;durP1;ratioP1;P1;durP2;ratioP2;P2;SDS_P1;SDS_P2;PMS_P1;PMS_P2;Temp;Humidity;BMP_temperature;BMP_pressure;BME280_temperature;BME280_humidity;BME280_pressure;Samples;Min_cycle;Max_cycle;Signal;HPM_P1;HPM_P2
2021/08/09 00:00:57;;;;;;;3.30;2.70;;;14.80;99.90;;;;;;4992512;28;20203;-66
2021/08/09 00:03:23;;;;;;;2.30;2.10;;;14.80;99.90;;;;;;4994812;28;20199;-66
2021/08/09 00:05:48;;;;;;;3.97;2.37;;;14.80;99.90;;;;;;4995559;28;20199;-66
2021/08/09 00:08:14;;;;;;;2.30;2.10;;;14.80;99.90;;;;;;4995296;28;20168;-66
2021/08/09 00:10:40;;;;;;;2.40;1.87;;;14.80;99.90;;;;;;4995443;28;20167;-66
2021/08/09 00:13:05;;;;;;;2.80;2.27;;;14.80;99.90;;;;;;4995297;28;20168;-66
2021/08/09 00:15:31;;;;;;;2.87;2.67;;;14.80;99.90;;;;;;4995548;28;20171;-65
2021/08/09 00:17:56;;;;;;;6.03;2.17;;;14.80;99.90;;;;;;4995549;28;20279;-66
2021/08/09 00:20:22;;;;;;;2.87;2.30;;;14.80;99.90;;;;;;4995102;28;20226;-66
2021/08/09 00:22:48;;;;;;;2.40;2.20;;;14.70;99.90;;;;;;4995395;28;20645;-66
2021/08/09 00:25:14;;;;;;;3.70;2.47;;;14.80;99.90;;;;;;4993390;28;20204;-66
2021/08/09 00:27:40;;;;;;;2.40;2.30;;;14.80;99.90;;;;;;4994935;28;20235;-66
2021/08/09 00:30:07;;;;;;;3.40;2.23;;;14.80;99.90;;;;;;4994801;28;20430;-65
2021/08/09 00:32:32;;;;;;;4.10;2.67;;;14.70;99.90;;;;;;4972887;28;20700;-66
2021/08/09 00:34:58;;;;;;;2.80;2.20;;;14.70;99.90;;;;;;4977648;28;20451;-66
2021/08/09 00:37:24;;;;;;;3.17;2.53;;;14.60;99.90;;;;;;4995188;28;20637;-66
2021/08/09 00:39:49;;;;;;;2.63;2.43;;;14.60;99.90;;;;;;4994814;28;20549;-66
2021/08/09 00:42:15;;;;;;;3.33;2.53;;;14.60;99.90;;;;;;4995123;28;20645;-66
2021/08/09 00:44:43;;;;;;;5.80;2.33;;;14.50;99.90;;;;;;4990223;28;20200;-66
2021/08/09 00:47:08;;;;;;;2.20;2.00;;;14.50;99.90;;;;;;4975627;28;20168;-66
2021/08/09 00:49:34;;;;;;;3.00;2.60;;;14.40;99.90;;;;;;4975048;28;20426;-66
2021/08/09 00:52:00;;;;;;;2.27;2.07;;;14.40;99.90;;;;;;4975471;28;20591;-66
2021/08/09 00:54:27;;;;;;;2.90;2.40;;;14.40;99.90;;;;;;4975274;28;20578;-66
2021/08/09 00:56:53;;;;;;;2.43;2.23;;;14.40;99.90;;;;;;4975308;28;20423;-66
2021/08/09 00:59:19;;;;;;;2.43;2.23;;;14.40;99.90;;;;;;4989742;28;20443;-66
2021/08/09 01:01:45;;;;;;;2.50;2.30;;;14.30;99.90;;;;;;4994401;28;20856;-66
2021/08/09 01:04:11;;;;;;;3.20;2.33;;;14.40;99.90;;;;;;4994030;28;20497;-66
2021/08/09 01:06:38;;;;;;;2.40;2.20;;;14.40;99.90;;;;;;4994604;28;20171;-66
2021/08/09 01:09:40;;;;;;;2.40;2.20;;;14.30;99.90;;;;;;4993733;28;20175;-66
2021/08/09 01:12:28;;;;;;;2.30;2.20;;;14.30;99.90;;;;;;4994529;28;20446;-66
2021/08/09 01:15:20;;;;;;;2.37;2.17;;;14.30;99.90;;;;;;4994078;28;20513;-65
2021/08/09 01:17:47;;;;;;;2.90;2.70;;;14.30;99.90;;;;;;4994400;28;20422;-65
2021/08/09 01:20:40;;;;;;;4.20;2.50;;;14.20;99.90;;;;;;4993995;28;20454;-65
2021/08/09 01:23:14;;;;;;;4.20;2.97;;;14.10;99.90;;;;;;4993982;28;21001;-65
2021/08/09 01:25:58;;;;;;;2.50;2.30;;;14.10;99.90;;;;;;4976331;28;20461;-65
2021/08/09 01:28:32;;;;;;;2.60;2.40;;;14.00;99.90;;;;;;4993747;28;20493;-65
2021/08/09 01:31:00;;;;;;;2.50;2.30;;;14.00;99.90;;;;;;4988106;28;20477;-65
2021/08/09 01:33:27;;;;;;;2.53;2.33;;;14.00;99.90;;;;;;4994002;28;20809;-65
2021/08/09 01:35:55;;;;;;;3.33;2.57;;;14.00;99.90;;;;;;4993672;28;20434;-66
2021/08/09 01:38:24;;;;;;;4.50;2.70;;;13.90;99.90;;;;;;4993482;28;20449;-66
2021/08/09 01:40:50;;;;;;;2.40;2.20;;;13.90;99.90;;;;;;4993841;28;20470;-66
2021/08/09 01:43:17;;;;;;;3.20;2.60;;;13.90;99.90;;;;;;4993449;28;20521;-65
2021/08/09 01:45:43;;;;;;;3.33;2.93;;;13.90;99.90;;;;;;4993452;28;20459;-65
2021/08/09 01:48:10;;;;;;;3.70;2.50;;;13.90;99.90;;;;;;4993497;28;20941;-65
2021/08/09 01:50:36;;;;;;;3.90;2.37;;;13.90;99.90;;;;;;4993295;28;20438;-65
2021/08/09 01:53:03;;;;;;;4.23;2.80;;;13.90;99.90;;;;;;4993634;28;20868;-65
2021/08/09 01:55:29;;;;;;;3.73;2.80;;;13.80;99.90;;;;;;4993486;28;20509;-66
2021/08/09 01:57:55;;;;;;;3.20;2.90;;;13.70;99.90;;;;;;4993101;28;20446;-66
2021/08/09 02:00:21;;;;;;;3.57;2.27;;;13.70;99.90;;;;;;4992611;28;20513;-66
2021/08/09 02:02:48;;;;;;;2.70;2.30;;;13.70;99.90;;;;;;4992700;28;20676;-66
2021/08/09 02:05:17;;;;;;;2.60;2.40;;;13.60;99.90;;;;;;4993279;28;20261;-66
2021/08/09 02:07:46;;;;;;;2.37;2.17;;;13.60;99.90;;;;;;4993036;28;20485;-66
2021/08/09 02:10:14;;;;;;;2.73;2.30;;;13.60;99.90;;;;;;4993112;28;20415;-66
2021/08/09 02:12:44;;;;;;;6.43;2.60;;;13.60;99.90;;;;;;4993199;28;20489;-65
2021/08/09 02:15:11;;;;;;;3.40;3.10;;;13.70;99.90;;;;;;4992914;28;20462;-65
2021/08/09 02:17:45;;;;;;;2.50;2.07;;;13.70;99.90;;;;;;4993050;28;20463;-66
2021/08/09 02:20:38;;;;;;;2.30;2.10;;;13.70;99.90;;;;;;4992887;28;20974;-65
2021/08/09 02:23:08;;;;;;;2.37;2.17;;;13.70;99.90;;;;;;4990705;28;20471;-66
2021/08/09 02:25:36;;;;;;;2.80;2.40;;;13.70;99.90;;;;;;4974877;28;20454;-65
2021/08/09 02:28:11;;;;;;;2.50;2.10;;;13.70;99.90;;;;;;4992825;28;20518;-66
2021/08/09 02:30:41;;;;;;;2.30;2.10;;;13.70;99.90;;;;;;4982415;28;20418;-66
2021/08/09 02:33:07;;;;;;;2.50;2.30;;;13.60;99.90;;;;;;4988884;28;20964;-66
2021/08/09 02:35:34;;;;;;;3.53;3.23;;;13.60;99.90;;;;;;4992589;28;20434;-66
2021/08/09 02:38:00;;;;;;;2.73;2.53;;;13.60;99.90;;;;;;4992874;28;20465;-66
2021/08/09 02:40:26;;;;;;;6.23;2.43;;;13.60;99.90;;;;;;4992655;28;20418;-66
2021/08/09 02:42:52;;;;;;;3.53;2.47;;;13.50;99.90;;;;;;4992933;28;20497;-66
2021/08/09 02:45:18;;;;;;;5.10;2.50;;;13.40;99.90;;;;;;4992691;28;20454;-66
2021/08/09 02:47:46;;;;;;;6.20;2.50;;;13.40;99.90;;;;;;4992471;28;20431;-66
2021/08/09 02:50:14;;;;;;;2.87;2.50;;;13.30;99.90;;;;;;4992403;28;20422;-66
2021/08/09 02:52:41;;;;;;;2.93;2.37;;;13.30;99.90;;;;;;4992474;28;20434;-66
2021/08/09 02:55:08;;;;;;;3.27;2.80;;;13.20;99.90;;;;;;4992861;28;20860;-66
2021/08/09 02:57:35;;;;;;;3.20;2.90;;;13.20;99.90;;;;;;4992719;28;20430;-66
2021/08/09 03:00:00;;;;;;;5.50;2.10;;;13.20;99.90;;;;;;4992367;28;20423;-66
2021/08/09 03:02:29;;;;;;;2.60;2.40;;;13.20;99.90;;;;;;4992264;28;21123;-66
2021/08/09 03:04:56;;;;;;;2.60;2.30;;;13.10;99.90;;;;;;4991894;28;20212;-66
2021/08/09 03:07:24;;;;;;;5.10;2.67;;;13.10;99.90;;;;;;4992434;28;20958;-66
2021/08/09 03:09:50;;;;;;;2.77;2.57;;;13.10;99.90;;;;;;4972893;28;20953;-66
2021/08/09 03:12:17;;;;;;;2.50;2.30;;;13.10;99.90;;;;;;4973123;28;20451;-66
2021/08/09 03:14:48;;;;;;;2.87;2.67;;;13.20;99.90;;;;;;4991274;28;20215;-66
2021/08/09 03:17:14;;;;;;;2.20;2.10;;;13.20;99.90;;;;;;4991974;28;20438;-66
2021/08/09 03:19:39;;;;;;;2.97;2.73;;;13.20;99.90;;;;;;4991704;28;20438;-66
2021/08/09 03:22:05;;;;;;;2.50;2.30;;;13.20;99.90;;;;;;4975013;28;20182;-66
2021/08/09 03:24:31;;;;;;;2.70;2.37;;;13.10;99.90;;;;;;4992305;28;20318;-66
2021/08/09 03:26:58;;;;;;;3.10;2.90;;;13.10;99.90;;;;;;4992372;28;20175;-66
2021/08/09 03:29:25;;;;;;;3.00;2.80;;;13.00;99.90;;;;;;4990341;28;20427;-66
2021/08/09 03:31:51;;;;;;;2.87;2.20;;;13.10;99.90;;;;;;4973063;28;20956;-66
2021/08/09 03:34:17;;;;;;;3.70;2.87;;;13.00;99.90;;;;;;4972792;28;20471;-66
2021/08/09 03:36:46;;;;;;;3.10;2.70;;;13.10;99.90;;;;;;4974880;28;20913;-66
2021/08/09 03:39:12;;;;;;;4.30;2.40;;;13.00;99.90;;;;;;4976504;28;20172;-66
2021/08/09 03:41:37;;;;;;;2.80;2.57;;;13.10;99.90;;;;;;4977751;28;20506;-66
2021/08/09 03:44:04;;;;;;;3.60;3.30;;;12.90;99.90;;;;;;4995641;28;20206;-66
2021/08/09 03:46:30;;;;;;;2.43;2.23;;;13.00;99.90;;;;;;4995827;28;20222;-66
2021/08/09 03:48:56;;;;;;;3.73;2.40;;;12.90;99.90;;;;;;4995238;28;20447;-66
2021/08/09 03:51:21;;;;;;;3.47;2.40;;;12.90;99.90;;;;;;4995809;28;20179;-66
2021/08/09 03:53:47;;;;;;;3.93;2.70;;;13.00;99.90;;;;;;4995581;28;20716;-66
2021/08/09 03:56:12;;;;;;;3.17;2.70;;;13.00;99.90;;;;;;4978110;28;20535;-66
2021/08/09 03:58:38;;;;;;;3.83;2.57;;;12.90;99.90;;;;;;4994802;28;20179;-66
2021/08/09 04:01:04;;;;;;;3.07;2.87;;;12.90;99.90;;;;;;4995575;28;20715;-66
2021/08/09 04:03:30;;;;;;;3.40;2.70;;;12.90;99.90;;;;;;4995490;28;20195;-66
2021/08/09 04:05:55;;;;;;;2.80;2.43;;;13.00;99.90;;;;;;4995509;28;20990;-66
2021/08/09 04:08:21;;;;;;;2.90;2.70;;;12.90;99.90;;;;;;4995100;28;20249;-66
2021/08/09 04:10:46;;;;;;;3.00;2.43;;;13.00;99.90;;;;;;4995566;28;20230;-66
2021/08/09 04:13:12;;;;;;;2.87;2.67;;;13.00;99.90;;;;;;4990636;28;20200;-66
2021/08/09 04:15:39;;;;;;;3.73;3.10;;;13.00;99.90;;;;;;4989242;28;20176;-66
2021/08/09 04:18:05;;;;;;;3.20;2.90;;;13.00;99.90;;;;;;4995394;28;20545;-66
2021/08/09 04:20:30;;;;;;;5.33;3.43;;;13.00;99.90;;;;;;4986849;28;20462;-66
2021/08/09 04:22:56;;;;;;;3.90;3.60;;;13.10;99.90;;;;;;4995362;28;20176;-66
2021/08/09 04:25:22;;;;;;;2.80;2.60;;;13.10;99.90;;;;;;4995233;28;20562;-66
2021/08/09 04:27:47;;;;;;;4.47;3.90;;;13.00;99.90;;;;;;4995341;28;20251;-66
2021/08/09 04:30:13;;;;;;;6.00;3.30;;;12.90;99.90;;;;;;4986176;28;20176;-66
2021/08/09 04:32:40;;;;;;;3.20;3.00;;;12.80;99.90;;;;;;4976257;28;20231;-66
2021/08/09 04:35:08;;;;;;;3.27;3.00;;;12.80;99.90;;;;;;4975619;28;20192;-66
2021/08/09 04:37:34;;;;;;;4.00;3.70;;;12.80;99.90;;;;;;4975726;28;20796;-66
2021/08/09 04:40:00;;;;;;;5.70;2.93;;;12.80;99.90;;;;;;4975528;28;20428;-66
2021/08/09 04:42:25;;;;;;;4.70;2.70;;;12.90;99.90;;;;;;4975544;28;20172;-66
2021/08/09 04:44:51;;;;;;;3.40;3.20;;;12.90;99.90;;;;;;4975360;28;20509;-66
2021/08/09 04:47:16;;;;;;;3.43;3.23;;;13.00;99.90;;;;;;4974903;28;20191;-66
2021/08/09 04:49:42;;;;;;;6.53;3.20;;;13.20;99.90;;;;;;4974939;28;20169;-66
2021/08/09 04:52:08;;;;;;;3.60;3.30;;;13.30;99.90;;;;;;4975688;28;20266;-66
2021/08/09 04:54:34;;;;;;;5.63;3.73;;;13.50;99.90;;;;;;4975335;28;20204;-66
2021/08/09 04:57:00;;;;;;;4.33;3.43;;;13.50;99.90;;;;;;4958195;28;20207;-66
2021/08/09 04:59:25;;;;;;;4.73;3.63;;;13.60;99.90;;;;;;4975348;28;20506;-66
2021/08/09 05:01:51;;;;;;;6.50;3.30;;;13.60;99.90;;;;;;4975244;28;20188;-66
2021/08/09 05:04:16;;;;;;;3.87;3.50;;;13.60;99.90;;;;;;4979865;28;20191;-66
2021/08/09 05:06:42;;;;;;;7.80;4.47;;;13.60;99.90;;;;;;4994890;28;20195;-66
2021/08/09 05:09:07;;;;;;;3.30;3.03;;;13.60;99.90;;;;;;4985462;28;20172;-66
2021/08/09 05:11:33;;;;;;;4.03;3.67;;;13.50;99.90;;;;;;4994489;28;20171;-66
2021/08/09 05:13:58;;;;;;;6.80;3.50;;;13.50;99.90;;;;;;4993997;28;20211;-66
2021/08/09 05:16:24;;;;;;;6.63;4.97;;;13.50;99.90;;;;;;4957693;28;20603;-66
2021/08/09 05:18:51;;;;;;;5.10;3.77;;;13.60;99.90;;;;;;4974636;28;20231;-66
2021/08/09 05:21:17;;;;;;;4.37;3.43;;;13.70;99.90;;;;;;4974923;28;20247;-66
2021/08/09 05:23:43;;;;;;;12.83;3.73;;;13.80;99.90;;;;;;4974806;28;20991;-66
2021/08/09 05:26:10;;;;;;;4.10;3.77;;;13.80;99.90;;;;;;4974965;28;20701;-66
2021/08/09 05:28:35;;;;;;;5.67;3.57;;;13.90;99.90;;;;;;4976333;28;20180;-66
2021/08/09 05:31:03;;;;;;;7.40;4.20;;;14.00;99.90;;;;;;4979649;28;20511;-66
2021/08/09 05:33:29;;;;;;;4.20;3.10;;;14.00;99.90;;;;;;4974811;28;20188;-66
2021/08/09 05:35:55;;;;;;;4.13;3.40;;;14.20;99.90;;;;;;4974606;28;20963;-66
2021/08/09 05:38:21;;;;;;;5.80;3.87;;;14.40;99.90;;;;;;4957106;28;20430;-66
2021/08/09 05:40:46;;;;;;;3.80;3.50;;;14.60;99.90;;;;;;4974511;28;20641;-66
2021/08/09 05:43:12;;;;;;;6.03;3.27;;;14.80;99.90;;;;;;4974354;28;20183;-66
2021/08/09 05:45:37;;;;;;;10.90;3.53;;;14.80;99.90;;;;;;4992887;28;20235;-66
2021/08/09 05:48:03;;;;;;;3.77;3.10;;;14.90;99.90;;;;;;4991685;28;20199;-66
2021/08/09 05:50:29;;;;;;;5.03;4.53;;;14.90;99.90;;;;;;4988017;28;20662;-66
2021/08/09 05:52:54;;;;;;;3.60;2.90;;;15.00;99.90;;;;;;4974235;28;20423;-66
2021/08/09 05:55:23;;;;;;;7.43;3.07;;;15.10;99.90;;;;;;4985927;28;20705;-66
2021/08/09 05:57:49;;;;;;;6.00;3.07;;;15.20;99.90;;;;;;4993579;28;20178;-66
2021/08/09 06:00:15;;;;;;;4.87;3.17;;;15.40;99.90;;;;;;4992959;28;20458;-66
2021/08/09 06:02:41;;;;;;;5.73;3.10;;;15.60;99.90;;;;;;4992454;28;20441;-66
2021/08/09 06:05:08;;;;;;;2.73;2.40;;;15.90;99.90;;;;;;4980568;28;20204;-66
2021/08/09 06:07:33;;;;;;;3.83;3.00;;;16.10;99.90;;;;;;4970132;28;20427;-66
2021/08/09 06:09:59;;;;;;;3.00;2.20;;;16.20;99.90;;;;;;4993124;28;20425;-66
2021/08/09 06:12:24;;;;;;;3.63;2.63;;;16.40;99.90;;;;;;4987504;28;20678;-66
2021/08/09 06:14:50;;;;;;;4.47;3.07;;;16.30;99.90;;;;;;4993168;28;20211;-66
2021/08/09 06:17:15;;;;;;;4.63;2.50;;;16.40;99.90;;;;;;4988294;28;20183;-66
2021/08/09 06:19:41;;;;;;;2.90;2.60;;;16.50;99.90;;;;;;5002277;28;20258;-66
2021/08/09 06:22:06;;;;;;;5.33;2.80;;;16.50;99.90;;;;;;5012823;28;20254;-66
2021/08/09 06:24:32;;;;;;;2.50;2.30;;;16.60;99.90;;;;;;5012667;28;20190;-66
2021/08/09 06:26:58;;;;;;;2.57;2.37;;;16.70;99.90;;;;;;5009884;28;20167;-65
2021/08/09 06:29:24;;;;;;;4.20;2.70;;;16.80;99.90;;;;;;4971515;28;20489;-65
2021/08/09 06:31:49;;;;;;;3.10;2.20;;;16.90;99.90;;;;;;4954108;28;20793;-65
2021/08/09 06:34:15;;;;;;;2.40;2.10;;;17.10;99.90;;;;;;4991634;28;20187;-65
2021/08/09 06:36:40;;;;;;;4.07;2.00;;;17.20;99.90;;;;;;5004447;28;20175;-65
2021/08/09 06:39:06;;;;;;;2.30;2.10;;;17.30;99.90;;;;;;5000181;28;20179;-66
2021/08/09 06:41:32;;;;;;;3.03;2.83;;;17.50;99.90;;;;;;4986750;28;20641;-66
2021/08/09 06:43:59;;;;;;;2.73;2.53;;;17.60;99.90;;;;;;4992632;28;20196;-65
2021/08/09 06:46:25;;;;;;;7.10;3.90;;;17.60;99.90;;;;;;4992828;28;20462;-65
2021/08/09 06:48:51;;;;;;;3.30;2.43;;;17.70;99.90;;;;;;4987157;28;20440;-65
2021/08/09 06:51:17;;;;;;;2.40;1.60;;;17.60;99.90;;;;;;4973577;28;20172;-65
2021/08/09 06:53:42;;;;;;;2.73;1.63;;;17.80;99.90;;;;;;4974221;28;20185;-66
2021/08/09 06:56:08;;;;;;;2.00;1.90;;;18.00;99.90;;;;;;4975719;28;20439;-66
2021/08/09 06:58:33;;;;;;;3.37;2.90;;;18.10;99.90;;;;;;4991720;28;20180;-66
2021/08/09 07:00:59;;;;;;;2.20;2.10;;;18.10;99.90;;;;;;4974045;28;20238;-66
2021/08/09 07:03:24;;;;;;;2.40;1.60;;;18.30;99.90;;;;;;4993997;28;20207;-66
2021/08/09 07:05:50;;;;;;;3.60;2.87;;;18.60;99.90;;;;;;4993287;28;20294;-66
2021/08/09 07:08:15;;;;;;;2.00;1.90;;;18.60;99.90;;;;;;4993393;28;20637;-66
2021/08/09 07:10:44;;;;;;;2.37;2.17;;;18.50;99.90;;;;;;4991254;28;20198;-66
2021/08/09 07:13:09;;;;;;;2.33;2.13;;;18.50;99.90;;;;;;4998828;28;20163;-66
2021/08/09 07:15:35;;;;;;;5.17;2.97;;;18.60;99.90;;;;;;4995714;28;20431;-62
2021/08/09 07:18:00;;;;;;;2.30;2.20;;;18.70;99.90;;;;;;4997439;28;20194;-62
2021/08/09 07:20:26;;;;;;;2.87;2.67;;;18.70;99.90;;;;;;4982482;28;20187;-61
2021/08/09 07:22:52;;;;;;;2.37;2.00;;;18.80;99.90;;;;;;4980244;28;20182;-62
2021/08/09 07:25:18;;;;;;;2.70;2.10;;;19.10;99.90;;;;;;4994405;28;20681;-62
2021/08/09 07:27:44;;;;;;;2.50;2.30;;;19.20;99.90;;;;;;4999056;28;20621;-63
2021/08/09 07:30:14;;;;;;;3.70;2.10;;;19.50;99.90;;;;;;4989064;28;20418;-61
2021/08/09 07:32:40;;;;;;;4.37;2.40;;;19.70;99.90;;;;;;4993676;28;21231;-64
2021/08/09 07:35:06;;;;;;;2.20;2.00;;;19.90;99.90;;;;;;4976815;28;20512;-67
2021/08/09 07:37:32;;;;;;;1.80;1.70;;;20.50;99.90;;;;;;4995737;28;20481;-66
2021/08/09 07:39:58;;;;;;;2.47;1.77;;;20.80;99.90;;;;;;4980855;28;20479;-66
2021/08/09 07:42:24;;;;;;;3.03;2.10;;;21.00;99.90;;;;;;4976006;28;20182;-67
2021/08/09 07:44:50;;;;;;;2.80;2.20;;;20.70;99.90;;;;;;4981918;28;20470;-66
2021/08/09 07:47:16;;;;;;;5.13;1.80;;;20.70;99.90;;;;;;4995316;28;20553;-67
2021/08/09 07:49:43;;;;;;;2.43;1.80;;;20.90;99.90;;;;;;4991631;28;20912;-66
2021/08/09 07:52:09;;;;;;;2.37;1.80;;;21.10;99.90;;;;;;4998630;28;20485;-66
2021/08/09 07:54:34;;;;;;;2.10;2.00;;;21.50;99.90;;;;;;4998478;28;20536;-67
2021/08/09 07:57:04;;;;;;;1.70;1.60;;;21.70;99.90;;;;;;4998247;28;20981;-67
2021/08/09 07:59:30;;;;;;;4.17;1.53;;;21.80;99.90;;;;;;4987812;28;20542;-67
2021/08/09 08:01:57;;;;;;;1.80;1.70;;;22.10;99.90;;;;;;4985983;28;20518;-67
2021/08/09 08:04:22;;;;;;;3.47;1.80;;;22.40;99.90;;;;;;4998369;28;20464;-66
2021/08/09 08:06:48;;;;;;;1.30;1.20;;;22.60;99.90;;;;;;4998658;28;20418;-66
2021/08/09 08:09:13;;;;;;;3.20;1.80;;;22.20;99.90;;;;;;4992024;28;20182;-66
2021/08/09 08:11:39;;;;;;;1.73;1.53;;;22.10;99.90;;;;;;4990295;28;20168;-66
2021/08/09 08:14:04;;;;;;;2.53;1.53;;;22.10;99.90;;;;;;4978958;28;20208;-66
2021/08/09 08:16:30;;;;;;;1.70;1.60;;;22.20;99.90;;;;;;4979056;28;20176;-66
2021/08/09 08:18:55;;;;;;;1.83;1.53;;;22.20;99.90;;;;;;4993252;28;20196;-66
2021/08/09 08:21:21;;;;;;;2.23;1.60;;;22.50;99.90;;;;;;4978880;28;20266;-66
2021/08/09 08:23:46;;;;;;;1.50;1.40;;;22.50;99.90;;;;;;4991894;28;20203;-66
2021/08/09 08:26:12;;;;;;;1.73;1.63;;;22.50;99.90;;;;;;4995277;28;20740;-65
2021/08/09 08:28:37;;;;;;;3.43;1.70;;;22.80;99.90;;;;;;4982338;28;20184;-65
2021/08/09 08:31:03;;;;;;;1.60;1.50;;;22.90;99.90;;;;;;4988527;28;20176;-66
2021/08/09 08:33:29;;;;;;;2.40;1.43;;;22.90;99.90;;;;;;4995235;28;20184;-65
2021/08/09 08:35:55;;;;;;;2.20;1.50;;;22.70;99.60;;;;;;4994874;28;20191;-66
2021/08/09 08:38:20;;;;;;;2.70;1.27;;;22.70;99.90;;;;;;4988552;28;20432;-65
2021/08/09 08:40:51;;;;;;;4.13;2.00;;;23.00;99.90;;;;;;4976127;28;20219;-66
2021/08/09 08:43:26;;;;;;;1.57;1.47;;;23.50;99.40;;;;;;4975578;28;20176;-67
2021/08/09 08:45:59;;;;;;;1.63;1.53;;;23.80;98.80;;;;;;4975397;28;20467;-67
2021/08/09 08:48:25;;;;;;;1.63;1.37;;;24.50;97.60;;;;;;4974954;28;20426;-66
2021/08/09 08:50:52;;;;;;;1.40;1.30;;;24.90;95.30;;;;;;4965030;28;21074;-66
2021/08/09 08:53:19;;;;;;;2.20;1.97;;;24.60;95.20;;;;;;5014391;28;20414;-66
2021/08/09 08:55:45;;;;;;;3.30;1.50;;;23.80;95.70;;;;;;5014383;28;20827;-66
2021/08/09 08:58:11;;;;;;;1.43;1.33;;;23.70;96.10;;;;;;4975512;28;20428;-67
2021/08/09 09:00:43;;;;;;;1.43;1.27;;;24.00;95.70;;;;;;4982597;28;20957;-66
2021/08/09 09:03:39;;;;;;;1.90;1.80;;;24.40;94.80;;;;;;4994522;28;20641;-66
2021/08/09 09:06:09;;;;;;;7.60;5.50;;;24.60;93.60;;;;;;4985649;28;20463;-65
2021/08/09 09:08:38;;;;;;;1.50;1.40;;;24.90;94.20;;;;;;4972472;28;20937;-66
2021/08/09 09:11:06;;;;;;;1.43;1.33;;;24.80;93.20;;;;;;4991357;28;20426;-66
2021/08/09 09:13:31;;;;;;;2.73;1.47;;;24.50;93.90;;;;;;4993993;28;20453;-66
2021/08/09 09:15:58;;;;;;;2.60;1.60;;;24.90;93.80;;;;;;4992828;28;20787;-66
2021/08/09 09:18:27;;;;;;;1.73;1.33;;;25.50;92.70;;;;;;4976328;28;20597;-65
2021/08/09 09:20:54;;;;;;;3.30;1.40;;;26.10;91.40;;;;;;4974331;28;20450;-65
2021/08/09 09:23:22;;;;;;;1.93;1.50;;;26.10;91.30;;;;;;4989438;28;20955;-65
2021/08/09 09:25:49;;;;;;;1.80;1.70;;;25.40;91.80;;;;;;4990388;28;20466;-64
2021/08/09 09:28:21;;;;;;;3.10;1.67;;;24.90;90.90;;;;;;4972487;28;20423;-64
2021/08/09 09:30:47;;;;;;;1.43;1.30;;;24.70;91.50;;;;;;4972308;28;20474;-66
2021/08/09 09:33:13;;;;;;;3.37;1.43;;;24.80;90.40;;;;;;4971608;28;20420;-65
2021/08/09 09:35:38;;;;;;;2.13;1.50;;;24.60;90.30;;;;;;4984819;28;20537;-65
2021/08/09 09:38:04;;;;;;;1.30;1.17;;;25.20;91.10;;;;;;4990425;28;20275;-65
2021/08/09 09:40:39;;;;;;;1.77;1.30;;;25.90;90.60;;;;;;4985953;28;20192;-65
2021/08/09 09:43:15;;;;;;;2.20;1.20;;;26.50;89.00;;;;;;4990999;28;20473;-65
2021/08/09 09:45:53;;;;;;;1.90;1.70;;;26.80;85.20;;;;;;4990325;28;20480;-65
2021/08/09 09:48:34;;;;;;;2.07;1.23;;;27.40;86.20;;;;;;5008007;28;20429;-65
2021/08/09 09:51:17;;;;;;;2.13;1.40;;;27.70;82.20;;;;;;4979449;28;20517;-65
2021/08/09 09:53:45;;;;;;;2.33;1.73;;;27.20;82.30;;;;;;4993615;28;20441;-65
2021/08/09 09:56:12;;;;;;;1.70;1.60;;;27.30;82.30;;;;;;4993603;28;20936;-65
2021/08/09 09:58:38;;;;;;;1.80;1.50;;;27.30;82.00;;;;;;4991625;28;20548;-64
2021/08/09 10:01:05;;;;;;;2.10;1.90;;;26.80;82.10;;;;;;4972203;28;20450;-67
2021/08/09 10:03:37;;;;;;;2.03;1.43;;;27.40;81.20;;;;;;4973679;28;20451;-66
2021/08/09 10:06:04;;;;;;;1.50;1.40;;;27.70;81.00;;;;;;4974167;28;20463;-66
2021/08/09 10:08:33;;;;;;;3.87;1.60;;;28.20;79.30;;;;;;4981245;28;20436;-66
2021/08/09 10:11:04;;;;;;;2.87;1.63;;;28.80;77.80;;;;;;4986425;28;20446;-64
2021/08/09 10:13:31;;;;;;;2.03;1.40;;;28.60;75.90;;;;;;4992588;28;20536;-64
2021/08/09 10:16:05;;;;;;;1.60;1.50;;;28.80;77.00;;;;;;4993960;28;20418;-65
2021/08/09 10:18:33;;;;;;;2.77;1.70;;;28.80;77.50;;;;;;4992746;28;20473;-66
2021/08/09 10:21:02;;;;;;;1.77;1.50;;;29.00;75.80;;;;;;4979915;28;20478;-65
2021/08/09 10:23:45;;;;;;;5.30;2.27;;;28.70;75.60;;;;;;4973700;28;20498;-65
2021/08/09 10:26:34;;;;;;;2.93;1.80;;;29.20;77.30;;;;;;4973509;28;20514;-64
2021/08/09 10:29:08;;;;;;;2.37;2.17;;;30.50;72.90;;;;;;4972564;28;20430;-64
2021/08/09 10:31:42;;;;;;;2.10;1.80;;;32.40;66.00;;;;;;4975374;28;20427;-65
2021/08/09 10:34:39;;;;;;;2.00;1.90;;;33.10;63.80;;;;;;4992846;28;20822;-65
2021/08/09 10:37:13;;;;;;;1.90;1.80;;;34.80;61.70;;;;;;4992759;28;20422;-63
2021/08/09 10:39:51;;;;;;;2.33;2.13;;;35.20;56.90;;;;;;4980645;28;20441;-63
2021/08/09 10:42:38;;;;;;;2.30;2.10;;;34.00;56.60;;;;;;4973845;28;20431;-62
2021/08/09 10:45:10;;;;;;;1.70;1.30;;;32.40;57.90;;;;;;4991111;28;20803;-62
2021/08/09 10:47:49;;;;;;;2.40;2.20;;;32.60;56.80;;;;;;4992504;28;20642;-62
2021/08/09 10:50:26;;;;;;;1.53;1.43;;;31.90;56.50;;;;;;4981002;28;20439;-61
2021/08/09 10:52:53;;;;;;;1.60;1.50;;;30.50;58.40;;;;;;4992678;28;20462;-59
2021/08/09 10:55:31;;;;;;;1.93;1.83;;;31.20;58.00;;;;;;4992692;28;20797;-62
2021/08/09 10:58:00;;;;;;;2.73;2.53;;;31.10;58.90;;;;;;4991644;28;20792;-62
2021/08/09 11:00:38;;;;;;;2.50;1.73;;;31.50;60.40;;;;;;4981406;28;20443;-62
2021/08/09 11:03:05;;;;;;;2.07;1.87;;;34.20;56.60;;;;;;4989070;28;20448;-63
2021/08/09 11:05:30;;;;;;;2.13;2.00;;;35.30;52.30;;;;;;4992489;28;20454;-66
2021/08/09 11:08:20;;;;;;;3.53;2.07;;;33.80;52.80;;;;;;4986909;28;20433;-65
2021/08/09 11:10:55;;;;;;;3.77;1.80;;;32.30;54.00;;;;;;4973677;28;20184;-65
2021/08/09 11:13:41;;;;;;;2.40;1.70;;;31.90;56.20;;;;;;4973660;28;20846;-66
2021/08/09 11:16:07;;;;;;;2.40;1.73;;;32.60;54.50;;;;;;4969807;28;20529;-65
2021/08/09 11:18:36;;;;;;;1.63;1.53;;;31.30;55.50;;;;;;4991278;28;20443;-65
2021/08/09 11:21:10;;;;;;;3.57;2.10;;;30.50;58.30;;;;;;4975224;28;20267;-65
2021/08/09 11:23:38;;;;;;;1.83;1.73;;;29.90;57.50;;;;;;4972889;28;20491;-65
2021/08/09 11:26:04;;;;;;;2.07;1.87;;;29.50;60.30;;;;;;4972998;28;20459;-65
2021/08/09 11:28:30;;;;;;;3.23;1.77;;;30.30;58.90;;;;;;4972570;28;20793;-65
2021/08/09 11:31:03;;;;;;;2.90;1.57;;;32.20;57.70;;;;;;4983840;28;20526;-65
2021/08/09 11:33:35;;;;;;;1.90;1.80;;;33.10;52.10;;;;;;4992125;28;20439;-66
2021/08/09 11:36:02;;;;;;;3.53;2.83;;;32.10;52.90;;;;;;4992225;28;20435;-65
2021/08/09 11:38:40;;;;;;;2.13;2.03;;;32.50;53.80;;;;;;4991948;28;20453;-65
2021/08/09 11:41:13;;;;;;;5.10;2.30;;;33.20;52.90;;;;;;4990370;28;20509;-65
2021/08/09 11:43:39;;;;;;;3.70;2.20;;;34.20;51.80;;;;;;4992022;28;20967;-66
2021/08/09 11:46:09;;;;;;;1.90;1.80;;;33.30;51.20;;;;;;4992165;28;20458;-66
2021/08/09 11:48:37;;;;;;;2.33;1.97;;;33.50;50.70;;;;;;4990426;28;20481;-65
2021/08/09 11:51:11;;;;;;;2.30;2.03;;;33.70;50.70;;;;;;4989550;28;20445;-66
2021/08/09 11:53:43;;;;;;;2.20;1.80;;;34.10;51.50;;;;;;4992185;28;20512;-66
2021/08/09 11:56:15;;;;;;;1.83;1.60;;;35.40;49.30;;;;;;4992064;28;20908;-65
2021/08/09 11:58:42;;;;;;;2.23;1.83;;;33.80;49.00;;;;;;4965123;28;20439;-66
2021/08/09 12:01:08;;;;;;;1.73;1.63;;;32.80;50.80;;;;;;4975863;28;20419;-66
2021/08/09 12:03:34;;;;;;;1.53;1.43;;;32.30;51.10;;;;;;4976265;28;20463;-65
2021/08/09 12:06:22;;;;;;;1.60;1.50;;;32.10;51.60;;;;;;4976183;28;20455;-64
2021/08/09 12:08:54;;;;;;;1.83;1.73;;;33.20;49.80;;;;;;4975172;28;20876;-66
2021/08/09 12:11:33;;;;;;;2.27;2.07;;;34.90;47.70;;;;;;4987234;28;20423;-65
2021/08/09 12:14:22;;;;;;;1.83;1.73;;;34.40;47.40;;;;;;4995317;28;20529;-65
2021/08/09 12:16:53;;;;;;;3.00;1.80;;;33.00;47.90;;;;;;4995230;28;20426;-66
2021/08/09 12:19:39;;;;;;;1.97;1.80;;;34.70;47.90;;;;;;4986035;28;20794;-65
2021/08/09 12:22:14;;;;;;;2.00;1.80;;;36.20;45.70;;;;;;4945252;28;20567;-66
2021/08/09 12:25:00;;;;;;;2.13;1.87;;;35.80;44.70;;;;;;4975917;28;20440;-66
2021/08/09 12:27:25;;;;;;;1.73;1.50;;;35.90;45.60;;;;;;4965110;28;20440;-66
2021/08/09 12:30:16;;;;;;;1.77;1.67;;;35.70;44.10;;;;;;4974914;28;20431;-65
2021/08/09 12:32:43;;;;;;;3.13;2.13;;;35.00;44.90;;;;;;4975759;28;20654;-65
2021/08/09 12:35:11;;;;;;;2.07;1.77;;;32.10;46.30;;;;;;4975666;28;20471;-64
2021/08/09 12:37:37;;;;;;;4.50;1.70;;;29.90;48.40;;;;;;4975738;28;20419;-65
2021/08/09 12:40:14;;;;;;;2.57;2.10;;;28.80;50.80;;;;;;4982062;28;20427;-65
2021/08/09 12:42:41;;;;;;;2.00;1.87;;;28.50;51.50;;;;;;4994923;28;20501;-65
2021/08/09 12:45:08;;;;;;;2.90;2.70;;;28.70;52.30;;;;;;4994857;28;20450;-65
2021/08/09 12:47:33;;;;;;;2.30;1.60;;;29.20;51.20;;;;;;4995294;28;20554;-65
2021/08/09 12:50:00;;;;;;;2.40;2.20;;;30.40;50.90;;;;;;4989194;28;20517;-65
2021/08/09 12:52:25;;;;;;;3.53;2.00;;;30.90;49.10;;;;;;4977071;28;20223;-65
2021/08/09 12:54:51;;;;;;;2.10;1.90;;;30.60;48.40;;;;;;4994700;28;20987;-64